createdAt,value
2018-09-25T00:02:10.282Z,90.00
2018-09-25T00:04:43.787Z,89.70
2018-09-25T00:07:17.413Z,90.20
2018-09-25T00:09:51.001Z,90.30
2018-09-25T00:12:24.456Z,90.60
2018-09-25T00:14:58.139Z,90.40
2018-09-25T00:17:31.750Z,90.60
2018-09-25T00:20:05.303Z,91.00
2018-09-25T00:22:38.932Z,91.30
2018-09-25T00:25:12.667Z,91.00
2018-09-25T00:27:46.175Z,90.50
2018-09-25T00:30:19.604Z,90.70
2018-09-25T00:32:53.266Z,90.60
2018-09-25T00:35:26.638Z,90.50
2018-09-25T00:38:00.144Z,91.00
2018-09-25T00:40:33.626Z,91.20
2018-09-25T00:43:07.144Z,91.40
2018-09-25T00:45:40.751Z,91.10
2018-09-25T00:48:14.335Z,90.60
2018-09-25T00:50:47.780Z,90.40
2018-09-25T00:53:21.194Z,90.20
2018-09-25T00:55:54.828Z,90.30
2018-09-25T00:58:28.430Z,90.30
2018-09-25T01:01:02.045Z,90.50
2018-09-25T01:03:35.565Z,90.60
2018-09-25T01:06:09.019Z,90.80
2018-09-25T01:08:42.419Z,90.50
2018-09-25T01:11:15.776Z,90.70
2018-09-25T01:13:49.326Z,90.60
2018-09-25T01:16:22.877Z,90.60
2018-09-25T01:18:56.276Z,90.80
2018-09-25T01:21:29.903Z,90.90
2018-09-25T01:24:03.411Z,90.70
2018-09-25T01:26:36.950Z,90.90
2018-09-25T01:29:10.613Z,91.00
2018-09-25T01:31:43.971Z,91.30
2018-09-25T01:34:17.615Z,91.10
2018-09-25T01:36:51.207Z,91.50
2018-09-25T01:39:24.592Z,91.10
2018-09-25T01:41:58.221Z,91.00
2018-09-25T01:44:31.855Z,91.70
2018-09-25T01:47:05.433Z,91.80
2018-09-25T01:49:39.152Z,91.50
2018-09-25T01:52:12.590Z,91.50
2018-09-25T01:54:46.238Z,92.00
2018-09-25T01:57:19.881Z,94.00
2018-09-25T01:59:53.397Z,94.50
2018-09-25T02:02:27.028Z,93.60
2018-09-25T02:05:00.619Z,93.50
2018-09-25T02:07:33.979Z,92.40
2018-09-25T02:10:07.374Z,91.90
2018-09-25T02:12:41.049Z,92.30
2018-09-25T02:15:14.625Z,92.40
2018-09-25T02:17:48.261Z,92.10
2018-09-25T02:20:21.872Z,92.70
2018-09-25T02:22:55.402Z,94.20
2018-09-25T02:25:28.724Z,93.80
2018-09-25T02:28:02.198Z,94.40
2018-09-25T02:30:35.573Z,93.20
2018-09-25T02:33:09.196Z,92.80
2018-09-25T02:35:42.711Z,92.30
2018-09-25T02:38:16.348Z,91.80
2018-09-25T02:40:50.024Z,91.50
2018-09-25T02:43:23.516Z,91.80
2018-09-25T02:45:56.970Z,92.00
2018-09-25T02:48:30.340Z,92.10
2018-09-25T02:51:03.702Z,92.10
2018-09-25T02:53:37.091Z,92.40
2018-09-25T02:56:10.728Z,92.60
2018-09-25T02:58:44.356Z,92.70
2018-09-25T03:01:17.942Z,92.10
2018-09-25T03:03:51.652Z,92.10
2018-09-25T03:06:25.116Z,92.00
2018-09-25T03:08:58.748Z,91.80
2018-09-25T03:11:32.345Z,91.60
2018-09-25T03:14:05.874Z,91.70
2018-09-25T03:16:39.332Z,91.60
2018-09-25T03:19:12.990Z,91.40
2018-09-25T03:21:46.623Z,91.50
2018-09-25T03:24:20.256Z,91.10
2018-09-25T03:26:53.852Z,91.20
2018-09-25T03:29:27.474Z,91.60
2018-09-25T03:32:01.038Z,91.50
2018-09-25T03:34:34.509Z,92.20
2018-09-25T03:37:08.160Z,92.90
2018-09-25T03:39:41.666Z,92.00
2018-09-25T03:42:15.378Z,91.50
2018-09-25T03:44:49.089Z,91.50
2018-09-25T03:47:22.595Z,91.60
2018-09-25T03:49:56.275Z,92.00
2018-09-25T03:52:29.842Z,92.10
2018-09-25T03:55:03.635Z,91.90
2018-09-25T03:57:36.983Z,91.90
2018-09-25T04:00:10.766Z,92.30
2018-09-25T04:02:44.201Z,92.00
2018-09-25T04:05:17.642Z,92.00
2018-09-25T04:07:50.994Z,91.60
2018-09-25T04:10:24.600Z,91.50
2018-09-25T04:12:58.148Z,91.80
2018-09-25T04:15:31.613Z,91.60
2018-09-25T04:18:05.299Z,92.30
2018-09-25T04:20:38.846Z,93.30
2018-09-25T04:23:12.366Z,93.50
2018-09-25T04:25:45.931Z,93.60
2018-09-25T04:28:19.480Z,92.70
2018-09-25T04:30:53.093Z,92.90
2018-09-25T04:33:26.758Z,93.40
2018-09-25T04:36:00.401Z,93.70
2018-09-25T04:38:33.908Z,94.20
2018-09-25T04:41:07.333Z,93.80
2018-09-25T04:43:40.984Z,92.90
2018-09-25T04:46:14.570Z,93.00
2018-09-25T04:48:48.223Z,93.00
2018-09-25T04:51:21.902Z,93.80
2018-09-25T04:53:55.453Z,93.30
2018-09-25T04:56:29.098Z,93.10
2018-09-25T05:06:14.413Z,93.10
2018-09-25T05:08:48.002Z,93.40
2018-09-25T05:11:21.609Z,93.70
2018-09-25T05:13:54.995Z,94.00
2018-09-25T05:16:28.627Z,93.80
2018-09-25T05:19:02.126Z,94.10
2018-09-25T05:21:35.812Z,93.80
2018-09-25T05:24:09.570Z,93.40
2018-09-25T05:26:43.253Z,93.70
2018-09-25T05:29:16.839Z,95.70
2018-09-25T05:31:50.284Z,94.60
2018-09-25T05:34:23.745Z,94.00
2018-09-25T05:36:57.088Z,94.00
2018-09-25T05:39:30.734Z,93.60
2018-09-25T05:42:04.307Z,93.50
2018-09-25T05:44:38.029Z,93.90
2018-09-25T05:47:11.980Z,94.40
2018-09-25T05:49:45.426Z,94.20
2018-09-25T05:52:19.104Z,94.60
2018-09-25T05:54:52.601Z,94.20
2018-09-25T05:57:26.289Z,93.50
2018-09-25T05:59:59.811Z,93.20
2018-09-25T06:02:33.366Z,93.60
2018-09-25T06:05:06.849Z,94.10
2018-09-25T06:07:40.232Z,94.10
2018-09-25T06:10:13.710Z,94.90
2018-09-25T06:12:47.178Z,94.70
2018-09-25T06:15:20.842Z,94.40
2018-09-25T06:17:54.400Z,94.60
2018-09-25T06:20:27.908Z,94.40
2018-09-25T06:23:01.500Z,94.20
2018-09-25T06:25:35.058Z,95.10
2018-09-25T06:28:08.755Z,94.80
2018-09-25T06:30:42.331Z,95.30
2018-09-25T06:33:15.852Z,95.20
2018-09-25T06:35:49.571Z,96.10
2018-09-25T06:38:23.010Z,96.70
2018-09-25T06:40:56.513Z,97.00
2018-09-25T06:43:29.814Z,97.50
2018-09-25T06:46:03.138Z,97.40
2018-09-25T06:48:36.573Z,97.80
2018-09-25T06:51:10.083Z,97.90
2018-09-25T06:53:43.778Z,98.30
2018-09-25T06:56:17.438Z,98.60
2018-09-25T06:58:51.047Z,98.50
2018-09-25T07:01:24.758Z,98.60
2018-09-25T07:03:58.397Z,98.60
2018-09-25T07:06:32.067Z,98.60
2018-09-25T07:09:05.782Z,98.80
2018-09-25T07:11:39.192Z,99.10
2018-09-25T07:14:12.893Z,99.30
2018-09-25T07:16:46.450Z,99.30
2018-09-25T07:19:19.912Z,99.90
2018-09-25T07:21:53.612Z,95.80
2018-09-25T07:24:27.309Z,96.20
2018-09-25T07:27:00.786Z,97.00
2018-09-25T07:29:34.418Z,97.20
2018-09-25T07:32:08.090Z,98.00
2018-09-25T07:34:44.922Z,97.90
2018-09-25T07:37:18.571Z,98.70
2018-09-25T07:39:52.225Z,97.90
2018-09-25T07:42:25.649Z,98.20
2018-09-25T07:44:59.239Z,98.00
2018-09-25T07:47:32.861Z,99.60
2018-09-25T07:50:06.396Z,96.10
2018-09-25T07:52:40.019Z,95.10
2018-09-25T07:55:13.642Z,94.30
2018-09-25T07:57:47.225Z,93.10
2018-09-25T08:00:20.632Z,92.00
2018-09-25T08:02:54.115Z,91.40
2018-09-25T08:05:27.576Z,90.00
2018-09-25T08:08:01.107Z,89.40
2018-09-25T08:10:34.767Z,88.00
2018-09-25T08:13:08.165Z,87.50
2018-09-25T08:15:41.605Z,87.20
2018-09-25T08:18:15.267Z,86.20
2018-09-25T08:20:48.795Z,85.70
2018-09-25T08:23:22.357Z,85.10
2018-09-25T08:25:55.780Z,83.50
2018-09-25T08:28:29.473Z,82.30
2018-09-25T08:31:03.050Z,81.20
2018-09-25T08:33:36.691Z,82.40
2018-09-25T08:36:10.238Z,79.70
2018-09-25T08:38:43.847Z,79.00
2018-09-25T08:41:17.345Z,79.20
2018-09-25T08:43:50.972Z,79.10
2018-09-25T08:46:24.664Z,77.80
2018-09-25T08:48:58.250Z,77.80
2018-09-25T08:51:31.959Z,78.00
2018-09-25T08:54:05.532Z,77.70
2018-09-25T08:56:39.254Z,76.80
2018-09-25T08:59:12.735Z,76.80
2018-09-25T09:01:46.355Z,78.10
2018-09-25T09:04:20.028Z,77.20
2018-09-25T09:06:53.553Z,76.60
2018-09-25T09:09:27.201Z,77.50
2018-09-25T09:12:01.805Z,77.10
2018-09-25T09:14:35.440Z,74.80
2018-09-25T09:17:09.147Z,73.80
2018-09-25T09:19:42.952Z,75.00
2018-09-25T09:22:16.451Z,75.00
2018-09-25T09:24:51.053Z,74.20
2018-09-25T09:27:26.535Z,74.80
2018-09-25T09:30:00.072Z,73.50
2018-09-25T09:32:33.754Z,74.10
2018-09-25T09:35:07.271Z,73.10
2018-09-25T09:37:40.925Z,71.90
2018-09-25T09:40:14.412Z,73.50
2018-09-25T09:42:48.150Z,72.60
2018-09-25T09:45:21.617Z,72.70
2018-09-25T09:47:55.193Z,73.20
2018-09-25T09:50:28.871Z,72.70
2018-09-25T09:53:02.309Z,73.90
2018-09-25T09:55:35.766Z,73.30
2018-09-25T09:58:09.509Z,74.50
2018-09-25T10:00:43.124Z,74.80
2018-09-25T10:03:16.902Z,72.90
2018-09-25T10:05:50.494Z,73.30
2018-09-25T10:08:23.983Z,73.50
2018-09-25T10:10:57.591Z,74.20
2018-09-25T10:13:31.204Z,75.00
2018-09-25T10:16:04.875Z,74.00
2018-09-25T10:18:38.341Z,73.70
2018-09-25T10:21:11.784Z,73.90
2018-09-25T10:23:45.456Z,70.90
2018-09-25T10:26:18.997Z,72.20
2018-09-25T10:28:52.669Z,72.40
2018-09-25T10:31:26.136Z,72.60
2018-09-25T10:33:59.693Z,71.40
2018-09-25T10:36:33.340Z,72.20
2018-09-25T10:39:06.915Z,72.10
2018-09-25T10:41:40.340Z,66.40
2018-09-25T10:44:20.576Z,68.40
2018-09-25T10:46:54.107Z,70.10
2018-09-25T10:49:27.561Z,61.20
2018-09-25T10:52:00.928Z,62.20
2018-09-25T10:54:34.474Z,65.80
2018-09-25T10:57:08.196Z,62.60
2018-09-25T10:59:41.893Z,67.50
2018-09-25T11:02:15.406Z,68.60
2018-09-25T11:04:49.110Z,67.50
2018-09-25T11:07:22.782Z,69.20
2018-09-25T11:09:56.533Z,68.40
2018-09-25T11:12:36.738Z,68.30
2018-09-25T11:15:10.163Z,69.30
2018-09-25T11:17:43.534Z,68.00
2018-09-25T11:20:17.294Z,68.70
2018-09-25T11:22:50.867Z,66.40
2018-09-25T11:25:24.524Z,66.50
2018-09-25T11:27:58.189Z,67.30
2018-09-25T11:30:31.752Z,66.90
2018-09-25T11:33:05.147Z,67.70
2018-09-25T11:35:38.673Z,67.00
2018-09-25T11:38:12.295Z,66.50
2018-09-25T11:40:46.119Z,65.90
2018-09-25T11:43:19.482Z,64.50
2018-09-25T11:45:53.048Z,65.10
2018-09-25T11:48:26.685Z,63.20
2018-09-25T11:51:01.180Z,62.20
2018-09-25T11:53:34.679Z,71.90
2018-09-25T11:56:08.048Z,63.60
2018-09-25T11:58:41.461Z,65.00
2018-09-25T12:01:15.113Z,64.10
2018-09-25T12:03:48.749Z,63.70
2018-09-25T12:06:22.288Z,63.70
2018-09-25T12:08:55.783Z,63.10
2018-09-25T12:11:29.156Z,63.10
2018-09-25T12:14:02.756Z,63.30
2018-09-25T12:16:36.300Z,61.80
2018-09-25T12:19:09.670Z,62.00
2018-09-25T12:21:43.154Z,62.70
2018-09-25T12:24:16.776Z,61.50
2018-09-25T12:26:50.385Z,63.80
2018-09-25T12:29:24.019Z,63.50
2018-09-25T12:31:57.542Z,64.80
2018-09-25T12:34:31.165Z,64.70
2018-09-25T12:40:07.769Z,66.40
2018-09-25T12:42:41.401Z,63.70
2018-09-25T12:45:14.972Z,63.30
2018-09-25T12:47:48.585Z,64.50
2018-09-25T12:50:22.159Z,64.30
2018-09-25T12:52:55.800Z,64.20
2018-09-25T12:55:29.417Z,63.90
2018-09-25T12:58:02.986Z,64.20
2018-09-25T13:00:36.541Z,64.40
2018-09-25T13:03:10.236Z,64.90
2018-09-25T13:05:43.809Z,65.00
2018-09-25T13:08:17.173Z,65.80
2018-09-25T13:10:50.696Z,66.10
2018-09-25T13:13:24.310Z,67.00
2018-09-25T13:15:57.913Z,66.10
2018-09-25T13:18:31.290Z,65.10
2018-09-25T13:21:04.627Z,66.10
2018-09-25T13:23:38.156Z,64.40
2018-09-25T13:26:11.821Z,64.50
2018-09-25T13:28:45.319Z,64.50
2018-09-25T13:31:18.847Z,64.60
2018-09-25T13:33:52.269Z,64.40
2018-09-25T13:36:25.807Z,64.40
2018-09-25T13:38:59.478Z,65.90
2018-09-25T13:41:32.845Z,62.10
2018-09-25T13:44:06.236Z,62.30
2018-09-25T13:46:39.629Z,62.90
2018-09-25T13:49:13.277Z,63.80
2018-09-25T13:51:46.918Z,63.30
2018-09-25T13:54:20.379Z,62.30
2018-09-25T13:56:53.867Z,62.60
2018-09-25T13:59:27.513Z,61.00
2018-09-25T14:02:01.208Z,61.30
2018-09-25T14:04:34.850Z,60.40
2018-09-25T14:07:08.488Z,61.20
2018-09-25T14:09:41.994Z,60.60
2018-09-25T14:12:15.372Z,60.30
2018-09-25T14:14:49.012Z,60.50
2018-09-25T14:17:22.714Z,61.00
2018-09-25T14:19:56.427Z,60.70
2018-09-25T14:22:30.050Z,60.90
2018-09-25T14:25:03.581Z,61.30
2018-09-25T14:27:36.980Z,62.50
2018-09-25T14:30:10.622Z,61.90
2018-09-25T14:32:44.318Z,60.90
2018-09-25T14:35:17.896Z,61.50
2018-09-25T14:37:51.380Z,58.50
2018-09-25T14:40:24.956Z,60.60
2018-09-25T14:42:58.510Z,60.20
2018-09-25T14:45:31.867Z,60.30
2018-09-25T14:48:05.544Z,60.10
2018-09-25T14:50:39.231Z,60.80
2018-09-25T14:53:12.725Z,62.50
2018-09-25T14:55:46.375Z,62.20
2018-09-25T14:58:20.042Z,61.80
2018-09-25T15:00:53.705Z,61.60
2018-09-25T15:03:27.294Z,62.30
2018-09-25T15:06:00.692Z,62.90
2018-09-25T15:08:34.120Z,63.00
2018-09-25T15:11:07.552Z,62.80
2018-09-25T15:13:40.952Z,63.40
2018-09-25T15:16:14.604Z,62.10
2018-09-25T15:18:48.294Z,62.70
2018-09-25T15:21:21.946Z,62.20
2018-09-25T15:23:55.627Z,63.10
2018-09-25T15:26:29.268Z,63.40
2018-09-25T15:29:02.779Z,64.20
2018-09-25T15:31:36.405Z,64.30
2018-09-25T15:34:09.886Z,64.40
2018-09-25T15:36:43.575Z,65.10
2018-09-25T15:39:17.239Z,65.20
2018-09-25T15:41:51.172Z,65.50
2018-09-25T15:44:24.943Z,65.70
2018-09-25T15:46:58.642Z,65.30
2018-09-25T15:49:32.271Z,64.40
2018-09-25T15:52:05.788Z,63.70
2018-09-25T15:54:39.479Z,63.80
2018-09-25T15:57:13.134Z,64.00
2018-09-25T15:59:46.779Z,64.10
2018-09-25T16:02:20.331Z,63.50
2018-09-25T16:04:55.108Z,64.10
2018-09-25T16:07:28.805Z,64.10
2018-09-25T16:10:02.429Z,64.30
2018-09-25T16:12:36.130Z,64.60
2018-09-25T16:15:09.534Z,64.70
2018-09-25T16:17:42.980Z,64.70
2018-09-25T16:20:16.720Z,64.50
2018-09-25T16:22:50.146Z,64.70
2018-09-25T16:25:23.671Z,65.20
2018-09-25T16:27:57.125Z,65.50
2018-09-25T16:30:30.833Z,65.80
2018-09-25T16:33:04.330Z,65.90
2018-09-25T16:35:38.123Z,65.40
2018-09-25T16:38:12.013Z,65.40
2018-09-25T16:40:45.773Z,64.90
2018-09-25T16:43:19.453Z,64.60
2018-09-25T16:45:53.035Z,64.90
2018-09-25T16:48:26.690Z,66.10
2018-09-25T16:51:00.301Z,66.10
2018-09-25T16:53:33.717Z,69.10
2018-09-25T16:56:07.576Z,69.60
2018-09-25T16:58:40.976Z,68.70
2018-09-25T17:01:14.673Z,67.60
2018-09-25T17:03:48.297Z,68.10
2018-09-25T17:06:22.040Z,69.10
2018-09-25T17:08:55.783Z,69.50
2018-09-25T17:11:29.522Z,70.80
2018-09-25T17:14:03.252Z,72.00
2018-09-25T17:16:37.107Z,72.50
2018-09-25T17:19:11.193Z,72.90
2018-09-25T17:21:44.849Z,73.00
2018-09-25T17:24:18.792Z,73.50
2018-09-25T17:26:52.285Z,74.00
2018-09-25T17:29:25.951Z,74.50
2018-09-25T17:31:59.464Z,74.60
2018-09-25T17:34:33.370Z,74.80
2018-09-25T17:37:06.947Z,75.10
2018-09-25T17:39:40.629Z,75.40
2018-09-25T17:42:14.306Z,75.20
2018-09-25T17:44:48.076Z,75.40
2018-09-25T17:47:21.828Z,75.80
2018-09-25T17:49:55.445Z,76.00
2018-09-25T17:52:29.157Z,76.50
2018-09-25T17:55:02.965Z,76.90
2018-09-25T17:57:36.494Z,76.70
2018-09-25T18:00:10.388Z,77.10
2018-09-25T18:02:44.061Z,77.50
2018-09-25T18:05:24.197Z,77.80
2018-09-25T18:07:57.781Z,78.00
2018-09-25T18:10:31.391Z,77.60
2018-09-25T18:13:04.968Z,77.50
2018-09-25T18:15:38.607Z,77.00
2018-09-25T18:18:12.556Z,77.40
2018-09-25T18:20:46.209Z,78.00
2018-09-25T18:23:19.933Z,79.00
2018-09-25T18:25:53.718Z,79.10
2018-09-25T18:28:27.424Z,79.20
2018-09-25T18:31:02.430Z,79.20
2018-09-25T18:33:36.026Z,79.60
2018-09-25T18:36:10.251Z,79.20
2018-09-25T18:38:43.972Z,79.10
2018-09-25T18:41:17.376Z,79.20
2018-09-25T18:43:50.769Z,79.00
2018-09-25T18:46:31.145Z,79.10
2018-09-25T18:49:04.775Z,79.90
2018-09-25T18:51:39.340Z,80.00
2018-09-25T18:54:13.003Z,80.30
2018-09-25T18:56:46.498Z,80.60
2018-09-25T18:59:20.533Z,80.40
2018-09-25T19:01:54.082Z,80.50
2018-09-25T19:04:27.668Z,80.50
2018-09-25T19:07:01.833Z,80.60
2018-09-25T19:09:35.508Z,80.60
2018-09-25T19:12:09.424Z,80.50
2018-09-25T19:14:43.048Z,81.30
2018-09-25T19:17:16.562Z,81.50
2018-09-25T19:19:50.244Z,81.80
2018-09-25T19:22:23.913Z,82.40
2018-09-25T19:24:57.431Z,82.40
2018-09-25T19:27:30.979Z,82.60
2018-09-25T19:30:04.441Z,82.00
2018-09-25T19:32:38.002Z,82.10
2018-09-25T19:35:11.934Z,82.60
2018-09-25T19:37:45.637Z,82.50
2018-09-25T19:40:19.504Z,82.50
2018-09-25T19:42:53.184Z,82.70
2018-09-25T19:45:26.864Z,82.30
2018-09-25T19:48:01.011Z,83.00
2018-09-25T19:50:34.503Z,83.00
2018-09-25T19:53:07.886Z,83.00
2018-09-25T19:55:41.586Z,83.30
2018-09-25T19:58:15.125Z,83.50
2018-09-25T20:00:49.118Z,83.50
2018-09-25T20:03:22.661Z,83.40
2018-09-25T20:05:56.301Z,83.90
2018-09-25T20:08:29.842Z,83.90
2018-09-25T20:11:03.393Z,84.10
2018-09-25T20:13:37.022Z,84.30
2018-09-25T20:16:11.307Z,83.80
2018-09-25T20:18:45.031Z,84.10
2018-09-25T20:21:18.634Z,84.00
2018-09-25T20:23:52.505Z,83.80
2018-09-25T20:26:26.271Z,83.80
2018-09-25T20:29:00.459Z,83.80
2018-09-25T20:31:33.990Z,84.10
2018-09-25T20:34:07.647Z,84.00
2018-09-25T20:36:41.936Z,83.80
2018-09-25T20:39:15.466Z,84.20
2018-09-25T20:41:49.430Z,84.30
2018-09-25T20:44:23.275Z,84.20
2018-09-25T20:46:56.799Z,84.40
2018-09-25T20:49:30.989Z,84.50
2018-09-25T20:52:04.807Z,84.80
2018-09-25T20:54:38.220Z,84.70
2018-09-25T20:57:12.314Z,84.80
2018-09-25T20:59:46.044Z,84.90
2018-09-25T21:02:19.374Z,84.80
2018-09-25T21:04:52.851Z,84.60
2018-09-25T21:07:26.425Z,84.90
2018-09-25T21:09:59.978Z,84.90
2018-09-25T21:12:33.757Z,84.90
2018-09-25T21:15:07.263Z,85.20
2018-09-25T21:17:40.918Z,85.30
2018-09-25T21:20:14.397Z,85.50
2018-09-25T21:22:48.180Z,85.70
2018-09-25T21:25:21.898Z,86.10
2018-09-25T21:27:55.722Z,85.60
2018-09-25T21:30:29.429Z,86.30
2018-09-25T21:33:03.204Z,86.10
2018-09-25T21:35:36.827Z,86.10
2018-09-25T21:38:10.553Z,85.70
2018-09-25T21:40:44.078Z,85.60
2018-09-25T21:43:17.523Z,85.40
2018-09-25T21:45:51.155Z,85.80
2018-09-25T21:48:24.785Z,85.70
2018-09-25T21:50:58.410Z,85.50
2018-09-25T21:53:31.947Z,84.40
2018-09-25T21:56:05.470Z,84.50
2018-09-25T21:58:39.171Z,84.40
2018-09-25T22:01:12.689Z,84.50
2018-09-25T22:03:46.393Z,84.30
2018-09-25T22:06:19.876Z,84.20
2018-09-25T22:08:53.511Z,83.90
2018-09-25T22:11:27.072Z,84.80
2018-09-25T22:14:00.381Z,84.80
2018-09-25T22:16:34.010Z,85.80
2018-09-25T22:19:07.700Z,85.50
2018-09-25T22:21:41.425Z,85.40
2018-09-25T22:24:15.017Z,85.30
2018-09-25T22:26:48.698Z,84.90
2018-09-25T22:29:22.410Z,85.00
2018-09-25T22:31:56.259Z,84.80
2018-09-25T22:34:29.810Z,84.90
2018-09-25T22:37:03.636Z,84.60
2018-09-25T22:39:37.570Z,84.70
2018-09-25T22:42:11.351Z,84.60
2018-09-25T22:44:44.935Z,84.30
2018-09-25T22:47:18.274Z,84.20
2018-09-25T22:49:51.812Z,84.50
2018-09-25T22:52:25.423Z,84.30
2018-09-25T22:54:59.055Z,84.30
2018-09-25T22:57:32.469Z,83.90
2018-09-25T23:00:06.197Z,83.70
2018-09-25T23:02:40.024Z,84.00
2018-09-25T23:05:14.060Z,83.90
2018-09-25T23:07:47.721Z,83.70
2018-09-25T23:10:21.380Z,83.70
2018-09-25T23:12:54.945Z,83.60
2018-09-25T23:15:28.572Z,82.90
2018-09-25T23:18:02.363Z,82.50
2018-09-25T23:20:35.843Z,83.10
2018-09-25T23:23:09.396Z,83.20
2018-09-25T23:25:42.865Z,82.70
2018-09-25T23:28:16.308Z,82.50
2018-09-25T23:30:49.847Z,82.00
2018-09-25T23:33:23.441Z,82.00
2018-09-25T23:35:57.056Z,81.70
2018-09-25T23:38:30.786Z,81.20
2018-09-25T23:41:06.070Z,80.70
2018-09-25T23:43:38.405Z,80.60
2018-09-25T23:46:12.011Z,80.60
2018-09-25T23:48:52.397Z,80.90
2018-09-25T23:51:26.829Z,80.50
2018-09-25T23:54:04.190Z,80.70
2018-09-25T23:57:38.362Z,80.30
